sensor_id;sensor_type;location;lat;lon;timestamp;temperature;humidity
4578;DHT22;2301;47.354;8.528;2023-03-12T00:02:09;11.50;90.50
4578;DHT22;2301;47.354;8.528;2023-03-12T00:04:36;11.50;90.00
4578;DHT22;2301;47.354;8.528;2023-03-12T00:07:04;11.50;89.10
4578;DHT22;2301;47.354;8.528;2023-03-12T00:09:34;11.50;88.90
4578;DHT22;2301;47.354;8.528;2023-03-12T00:12:02;11.60;89.20
4578;DHT22;2301;47.354;8.528;2023-03-12T00:14:29;11.50;87.50
4578;DHT22;2301;47.354;8.528;2023-03-12T00:16:56;11.50;87.70
4578;DHT22;2301;47.354;8.528;2023-03-12T00:19:23;11.40;88.00
4578;DHT22;2301;47.354;8.528;2023-03-12T00:21:50;11.40;88.10
4578;DHT22;2301;47.354;8.528;2023-03-12T00:24:18;11.40;87.90
4578;DHT22;2301;47.354;8.528;2023-03-12T00:26:45;11.50;89.20
4578;DHT22;2301;47.354;8.528;2023-03-12T00:29:12;11.50;88.10
4578;DHT22;2301;47.354;8.528;2023-03-12T00:31:38;11.50;87.80
4578;DHT22;2301;47.354;8.528;2023-03-12T00:34:05;11.60;87.90
4578;DHT22;2301;47.354;8.528;2023-03-12T00:36:32;11.50;86.70
4578;DHT22;2301;47.354;8.528;2023-03-12T00:39:00;11.60;87.70
4578;DHT22;2301;47.354;8.528;2023-03-12T00:41:29;11.50;85.90
4578;DHT22;2301;47.354;8.528;2023-03-12T00:43:56;11.50;86.40
4578;DHT22;2301;47.354;8.528;2023-03-12T00:46:23;11.50;87.40
4578;DHT22;2301;47.354;8.528;2023-03-12T00:48:49;11.40;85.50
4578;DHT22;2301;47.354;8.528;2023-03-12T00:51:16;11.20;84.40
4578;DHT22;2301;47.354;8.528;2023-03-12T00:53:43;11.20;84.90
4578;DHT22;2301;47.354;8.528;2023-03-12T00:56:10;11.20;87.30
4578;DHT22;2301;47.354;8.528;2023-03-12T00:58:39;11.30;87.30
4578;DHT22;2301;47.354;8.528;2023-03-12T01:01:07;11.30;86.80
4578;DHT22;2301;47.354;8.528;2023-03-12T01:03:34;11.30;87.80
4578;DHT22;2301;47.354;8.528;2023-03-12T01:06:02;11.40;87.80
4578;DHT22;2301;47.354;8.528;2023-03-12T01:08:29;11.40;88.00
4578;DHT22;2301;47.354;8.528;2023-03-12T01:10:56;11.40;87.20
4578;DHT22;2301;47.354;8.528;2023-03-12T01:13:23;11.40;86.10
4578;DHT22;2301;47.354;8.528;2023-03-12T01:15:51;11.40;86.30
4578;DHT22;2301;47.354;8.528;2023-03-12T01:18:18;11.40;87.10
4578;DHT22;2301;47.354;8.528;2023-03-12T01:20:45;11.30;86.20
4578;DHT22;2301;47.354;8.528;2023-03-12T01:23:12;11.30;86.10
4578;DHT22;2301;47.354;8.528;2023-03-12T01:25:40;11.30;86.00
4578;DHT22;2301;47.354;8.528;2023-03-12T01:28:08;11.30;87.00
4578;DHT22;2301;47.354;8.528;2023-03-12T01:30:35;11.40;87.80
4578;DHT22;2301;47.354;8.528;2023-03-12T01:33:03;11.50;87.60
4578;DHT22;2301;47.354;8.528;2023-03-12T01:35:35;11.60;87.50
4578;DHT22;2301;47.354;8.528;2023-03-12T01:38:01;11.70;87.50
4578;DHT22;2301;47.354;8.528;2023-03-12T01:40:28;11.80;86.30
4578;DHT22;2301;47.354;8.528;2023-03-12T01:42:58;11.80;85.70
4578;DHT22;2301;47.354;8.528;2023-03-12T01:45:59;11.80;85.50
4578;DHT22;2301;47.354;8.528;2023-03-12T01:48:33;11.90;85.20
4578;DHT22;2301;47.354;8.528;2023-03-12T01:51:01;11.80;84.90
4578;DHT22;2301;47.354;8.528;2023-03-12T01:53:29;11.90;85.00
4578;DHT22;2301;47.354;8.528;2023-03-12T01:55:57;11.80;84.20
4578;DHT22;2301;47.354;8.528;2023-03-12T01:58:26;11.80;83.60
4578;DHT22;2301;47.354;8.528;2023-03-12T02:00:54;11.80;83.70
4578;DHT22;2301;47.354;8.528;2023-03-12T02:03:21;11.50;79.40
4578;DHT22;2301;47.354;8.528;2023-03-12T02:05:52;11.50;83.00
4578;DHT22;2301;47.354;8.528;2023-03-12T02:08:21;11.50;84.20
4578;DHT22;2301;47.354;8.528;2023-03-12T02:10:49;11.50;84.70
4578;DHT22;2301;47.354;8.528;2023-03-12T02:13:16;11.60;84.80
4578;DHT22;2301;47.354;8.528;2023-03-12T02:15:43;11.70;84.50
4578;DHT22;2301;47.354;8.528;2023-03-12T02:18:14;11.70;84.20
4578;DHT22;2301;47.354;8.528;2023-03-12T02:20:47;11.60;83.80
4578;DHT22;2301;47.354;8.528;2023-03-12T02:23:22;11.60;85.10
4578;DHT22;2301;47.354;8.528;2023-03-12T02:25:53;11.70;85.40
4578;DHT22;2301;47.354;8.528;2023-03-12T02:28:24;11.70;84.10
4578;DHT22;2301;47.354;8.528;2023-03-12T02:30:55;11.80;85.00
4578;DHT22;2301;47.354;8.528;2023-03-12T02:33:23;11.80;84.30
4578;DHT22;2301;47.354;8.528;2023-03-12T02:35:51;11.80;83.80
4578;DHT22;2301;47.354;8.528;2023-03-12T02:38:33;11.80;83.50
4578;DHT22;2301;47.354;8.528;2023-03-12T02:41:04;11.80;83.60
4578;DHT22;2301;47.354;8.528;2023-03-12T02:43:35;11.80;83.70
4578;DHT22;2301;47.354;8.528;2023-03-12T02:46:02;11.80;83.20
4578;DHT22;2301;47.354;8.528;2023-03-12T02:48:29;11.90;83.40
4578;DHT22;2301;47.354;8.528;2023-03-12T02:50:56;11.80;82.70
4578;DHT22;2301;47.354;8.528;2023-03-12T02:53:23;11.80;82.60
4578;DHT22;2301;47.354;8.528;2023-03-12T02:55:50;11.80;82.70
4578;DHT22;2301;47.354;8.528;2023-03-12T02:58:18;11.80;82.60
4578;DHT22;2301;47.354;8.528;2023-03-12T03:00:45;11.80;83.50
4578;DHT22;2301;47.354;8.528;2023-03-12T03:03:13;11.80;82.60
4578;DHT22;2301;47.354;8.528;2023-03-12T03:05:40;11.80;82.60
4578;DHT22;2301;47.354;8.528;2023-03-12T03:08:07;11.70;80.60
4578;DHT22;2301;47.354;8.528;2023-03-12T03:10:34;11.70;82.50
4578;DHT22;2301;47.354;8.528;2023-03-12T03:13:01;11.70;82.30
4578;DHT22;2301;47.354;8.528;2023-03-12T03:15:29;11.70;82.00
4578;DHT22;2301;47.354;8.528;2023-03-12T03:17:56;11.70;82.10
4578;DHT22;2301;47.354;8.528;2023-03-12T03:20:23;11.70;82.80
4578;DHT22;2301;47.354;8.528;2023-03-12T03:22:51;11.70;81.70
4578;DHT22;2301;47.354;8.528;2023-03-12T03:25:18;11.60;82.10
4578;DHT22;2301;47.354;8.528;2023-03-12T03:27:46;11.50;80.30
4578;DHT22;2301;47.354;8.528;2023-03-12T03:30:14;11.50;82.10
4578;DHT22;2301;47.354;8.528;2023-03-12T03:32:42;11.60;82.90
4578;DHT22;2301;47.354;8.528;2023-03-12T03:35:09;11.70;83.40
4578;DHT22;2301;47.354;8.528;2023-03-12T03:37:36;11.80;83.30
4578;DHT22;2301;47.354;8.528;2023-03-12T03:40:04;11.60;79.40
4578;DHT22;2301;47.354;8.528;2023-03-12T03:42:36;11.70;81.70
4578;DHT22;2301;47.354;8.528;2023-03-12T03:45:04;11.70;82.80
4578;DHT22;2301;47.354;8.528;2023-03-12T03:47:31;11.70;82.00
4578;DHT22;2301;47.354;8.528;2023-03-12T03:49:59;11.40;78.80
4578;DHT22;2301;47.354;8.528;2023-03-12T03:52:26;11.50;81.90
4578;DHT22;2301;47.354;8.528;2023-03-12T03:54:53;11.40;81.70
4578;DHT22;2301;47.354;8.528;2023-03-12T03:57:21;11.50;82.20
4578;DHT22;2301;47.354;8.528;2023-03-12T03:59:48;11.50;82.50
4578;DHT22;2301;47.354;8.528;2023-03-12T04:02:15;11.50;81.80
4578;DHT22;2301;47.354;8.528;2023-03-12T04:04:43;11.40;81.90
4578;DHT22;2301;47.354;8.528;2023-03-12T04:07:11;11.40;81.10
4578;DHT22;2301;47.354;8.528;2023-03-12T04:09:38;11.30;80.00
4578;DHT22;2301;47.354;8.528;2023-03-12T04:12:08;11.20;80.90
4578;DHT22;2301;47.354;8.528;2023-03-12T04:14:38;11.30;82.70
4578;DHT22;2301;47.354;8.528;2023-03-12T04:17:05;11.40;83.60
4578;DHT22;2301;47.354;8.528;2023-03-12T04:19:32;11.50;83.20
4578;DHT22;2301;47.354;8.528;2023-03-12T04:22:00;11.40;82.10
4578;DHT22;2301;47.354;8.528;2023-03-12T04:24:28;11.40;82.80
4578;DHT22;2301;47.354;8.528;2023-03-12T04:26:56;11.50;83.50
4578;DHT22;2301;47.354;8.528;2023-03-12T04:29:23;11.50;82.60
4578;DHT22;2301;47.354;8.528;2023-03-12T04:31:50;11.40;79.50
4578;DHT22;2301;47.354;8.528;2023-03-12T04:34:17;11.30;81.30
4578;DHT22;2301;47.354;8.528;2023-03-12T04:36:44;11.30;81.30
4578;DHT22;2301;47.354;8.528;2023-03-12T04:39:12;11.30;81.70
4578;DHT22;2301;47.354;8.528;2023-03-12T04:41:41;11.30;82.10
4578;DHT22;2301;47.354;8.528;2023-03-12T04:44:08;11.30;82.60
4578;DHT22;2301;47.354;8.528;2023-03-12T04:46:34;11.30;81.70
4578;DHT22;2301;47.354;8.528;2023-03-12T04:49:02;11.40;83.40
4578;DHT22;2301;47.354;8.528;2023-03-12T04:51:29;11.50;82.90
4578;DHT22;2301;47.354;8.528;2023-03-12T04:53:56;11.50;82.50
4578;DHT22;2301;47.354;8.528;2023-03-12T04:56:23;11.40;80.80
4578;DHT22;2301;47.354;8.528;2023-03-12T04:58:52;11.40;82.30
4578;DHT22;2301;47.354;8.528;2023-03-12T05:01:22;11.40;81.50
4578;DHT22;2301;47.354;8.528;2023-03-12T05:03:50;11.50;82.10
4578;DHT22;2301;47.354;8.528;2023-03-12T05:06:17;11.50;83.10
4578;DHT22;2301;47.354;8.528;2023-03-12T05:08:44;11.60;82.80
4578;DHT22;2301;47.354;8.528;2023-03-12T05:11:11;11.60;81.80
4578;DHT22;2301;47.354;8.528;2023-03-12T05:13:39;11.60;82.30
4578;DHT22;2301;47.354;8.528;2023-03-12T05:16:07;11.60;82.50
4578;DHT22;2301;47.354;8.528;2023-03-12T05:18:35;11.60;82.60
4578;DHT22;2301;47.354;8.528;2023-03-12T05:21:03;11.60;81.80
4578;DHT22;2301;47.354;8.528;2023-03-12T05:23:31;11.70;82.50
4578;DHT22;2301;47.354;8.528;2023-03-12T05:25:58;11.60;80.90
4578;DHT22;2301;47.354;8.528;2023-03-12T05:28:25;11.50;80.40
4578;DHT22;2301;47.354;8.528;2023-03-12T05:30:53;11.40;80.90
4578;DHT22;2301;47.354;8.528;2023-03-12T05:33:22;11.40;82.70
4578;DHT22;2301;47.354;8.528;2023-03-12T05:35:49;11.50;82.60
4578;DHT22;2301;47.354;8.528;2023-03-12T05:38:16;11.40;81.10
4578;DHT22;2301;47.354;8.528;2023-03-12T05:40:50;11.40;80.40
4578;DHT22;2301;47.354;8.528;2023-03-12T05:43:17;11.30;80.60
4578;DHT22;2301;47.354;8.528;2023-03-12T05:45:44;11.40;82.10
4578;DHT22;2301;47.354;8.528;2023-03-12T05:48:11;11.40;81.10
4578;DHT22;2301;47.354;8.528;2023-03-12T05:50:40;11.40;81.00
4578;DHT22;2301;47.354;8.528;2023-03-12T05:53:07;11.30;80.70
4578;DHT22;2301;47.354;8.528;2023-03-12T05:55:34;11.20;80.30
4578;DHT22;2301;47.354;8.528;2023-03-12T05:58:01;11.10;81.50
4578;DHT22;2301;47.354;8.528;2023-03-12T06:00:28;11.00;82.80
4578;DHT22;2301;47.354;8.528;2023-03-12T06:02:55;11.00;82.70
4578;DHT22;2301;47.354;8.528;2023-03-12T06:05:22;10.90;79.90
4578;DHT22;2301;47.354;8.528;2023-03-12T06:07:50;10.70;80.80
4578;DHT22;2301;47.354;8.528;2023-03-12T06:10:17;10.70;82.60
4578;DHT22;2301;47.354;8.528;2023-03-12T06:12:44;10.80;83.60
4578;DHT22;2301;47.354;8.528;2023-03-12T06:15:11;10.80;83.40
4578;DHT22;2301;47.354;8.528;2023-03-12T06:17:38;10.90;83.80
4578;DHT22;2301;47.354;8.528;2023-03-12T06:20:06;10.90;82.60
4578;DHT22;2301;47.354;8.528;2023-03-12T06:22:33;10.90;82.50
4578;DHT22;2301;47.354;8.528;2023-03-12T06:25:02;10.80;82.30
4578;DHT22;2301;47.354;8.528;2023-03-12T06:27:29;10.80;83.40
4578;DHT22;2301;47.354;8.528;2023-03-12T06:29:57;10.80;83.60
4578;DHT22;2301;47.354;8.528;2023-03-12T06:32:24;10.80;84.10
4578;DHT22;2301;47.354;8.528;2023-03-12T06:34:50;10.80;83.80
4578;DHT22;2301;47.354;8.528;2023-03-12T06:37:17;10.80;83.50
4578;DHT22;2301;47.354;8.528;2023-03-12T06:39:44;10.80;84.20
4578;DHT22;2301;47.354;8.528;2023-03-12T06:42:12;10.70;83.40
4578;DHT22;2301;47.354;8.528;2023-03-12T06:44:39;10.60;83.00
4578;DHT22;2301;47.354;8.528;2023-03-12T06:47:06;10.50;82.20
4578;DHT22;2301;47.354;8.528;2023-03-12T06:49:33;10.40;82.50
4578;DHT22;2301;47.354;8.528;2023-03-12T06:52:01;10.20;82.50
4578;DHT22;2301;47.354;8.528;2023-03-12T06:54:28;10.20;83.10
4578;DHT22;2301;47.354;8.528;2023-03-12T06:56:55;9.80;83.00
4578;DHT22;2301;47.354;8.528;2023-03-12T06:59:25;9.80;85.60
4578;DHT22;2301;47.354;8.528;2023-03-12T07:01:53;9.90;87.30
4578;DHT22;2301;47.354;8.528;2023-03-12T07:04:19;10.10;87.00
4578;DHT22;2301;47.354;8.528;2023-03-12T07:06:46;10.00;85.80
4578;DHT22;2301;47.354;8.528;2023-03-12T07:09:16;10.10;86.50
4578;DHT22;2301;47.354;8.528;2023-03-12T07:11:43;10.30;88.10
4578;DHT22;2301;47.354;8.528;2023-03-12T07:14:10;10.40;88.70
4578;DHT22;2301;47.354;8.528;2023-03-12T07:16:43;10.60;88.50
4578;DHT22;2301;47.354;8.528;2023-03-12T07:19:11;10.70;88.40
4578;DHT22;2301;47.354;8.528;2023-03-12T07:21:38;10.80;88.40
4578;DHT22;2301;47.354;8.528;2023-03-12T07:24:05;10.90;89.30
4578;DHT22;2301;47.354;8.528;2023-03-12T07:26:33;11.00;88.50
4578;DHT22;2301;47.354;8.528;2023-03-12T07:29:00;11.10;88.90
4578;DHT22;2301;47.354;8.528;2023-03-12T07:31:27;11.10;88.10
4578;DHT22;2301;47.354;8.528;2023-03-12T07:33:56;11.20;88.10
4578;DHT22;2301;47.354;8.528;2023-03-12T07:36:22;11.30;88.30
4578;DHT22;2301;47.354;8.528;2023-03-12T07:38:49;11.40;88.30
4578;DHT22;2301;47.354;8.528;2023-03-12T07:41:16;11.50;88.40
4578;DHT22;2301;47.354;8.528;2023-03-12T07:43:43;11.50;88.10
4578;DHT22;2301;47.354;8.528;2023-03-12T07:46:10;11.60;87.40
4578;DHT22;2301;47.354;8.528;2023-03-12T07:48:37;11.70;86.80
4578;DHT22;2301;47.354;8.528;2023-03-12T07:51:06;11.70;85.70
4578;DHT22;2301;47.354;8.528;2023-03-12T07:53:33;11.60;85.20
4578;DHT22;2301;47.354;8.528;2023-03-12T07:56:00;11.60;85.80
4578;DHT22;2301;47.354;8.528;2023-03-12T07:58:26;11.60;85.80
4578;DHT22;2301;47.354;8.528;2023-03-12T08:00:54;11.60;85.70
4578;DHT22;2301;47.354;8.528;2023-03-12T08:03:21;11.70;86.60
4578;DHT22;2301;47.354;8.528;2023-03-12T08:05:59;11.70;86.50
4578;DHT22;2301;47.354;8.528;2023-03-12T08:08:28;11.80;86.90
4578;DHT22;2301;47.354;8.528;2023-03-12T08:10:55;11.90;86.70
4578;DHT22;2301;47.354;8.528;2023-03-12T08:13:23;11.90;86.70
4578;DHT22;2301;47.354;8.528;2023-03-12T08:15:50;12.00;86.80
4578;DHT22;2301;47.354;8.528;2023-03-12T08:18:18;12.10;86.10
4578;DHT22;2301;47.354;8.528;2023-03-12T08:20:49;12.20;86.30
4578;DHT22;2301;47.354;8.528;2023-03-12T08:23:16;12.40;86.30
4578;DHT22;2301;47.354;8.528;2023-03-12T08:25:46;12.50;85.30
4578;DHT22;2301;47.354;8.528;2023-03-12T08:28:13;12.50;85.00
4578;DHT22;2301;47.354;8.528;2023-03-12T08:30:44;12.60;84.40
4578;DHT22;2301;47.354;8.528;2023-03-12T08:33:11;12.70;84.50
4578;DHT22;2301;47.354;8.528;2023-03-12T08:35:38;12.80;84.40
4578;DHT22;2301;47.354;8.528;2023-03-12T08:38:05;12.80;83.80
4578;DHT22;2301;47.354;8.528;2023-03-12T08:40:32;12.80;84.80
4578;DHT22;2301;47.354;8.528;2023-03-12T08:43:00;12.80;84.10
4578;DHT22;2301;47.354;8.528;2023-03-12T08:45:27;12.70;84.30
4578;DHT22;2301;47.354;8.528;2023-03-12T08:47:54;12.80;84.80
4578;DHT22;2301;47.354;8.528;2023-03-12T08:50:21;12.80;85.40
4578;DHT22;2301;47.354;8.528;2023-03-12T08:52:50;12.90;85.50
4578;DHT22;2301;47.354;8.528;2023-03-12T08:55:17;12.90;83.70
4578;DHT22;2301;47.354;8.528;2023-03-12T08:57:44;12.90;83.10
4578;DHT22;2301;47.354;8.528;2023-03-12T09:00:13;12.90;83.60
4578;DHT22;2301;47.354;8.528;2023-03-12T09:02:43;13.00;83.00
4578;DHT22;2301;47.354;8.528;2023-03-12T09:05:10;12.90;81.90
4578;DHT22;2301;47.354;8.528;2023-03-12T09:07:37;13.10;84.10
4578;DHT22;2301;47.354;8.528;2023-03-12T09:10:05;13.50;87.00
4578;DHT22;2301;47.354;8.528;2023-03-12T09:12:32;14.00;85.20
4578;DHT22;2301;47.354;8.528;2023-03-12T09:14:59;14.70;82.80
4578;DHT22;2301;47.354;8.528;2023-03-12T09:17:27;15.20;80.50
4578;DHT22;2301;47.354;8.528;2023-03-12T09:19:54;15.60;79.00
4578;DHT22;2301;47.354;8.528;2023-03-12T09:22:21;16.00;76.00
4578;DHT22;2301;47.354;8.528;2023-03-12T09:24:48;16.30;73.90
4578;DHT22;2301;47.354;8.528;2023-03-12T09:27:15;16.60;71.90
4578;DHT22;2301;47.354;8.528;2023-03-12T09:29:42;16.90;71.10
4578;DHT22;2301;47.354;8.528;2023-03-12T09:32:09;17.10;70.00
4578;DHT22;2301;47.354;8.528;2023-03-12T09:34:37;17.30;67.80
4578;DHT22;2301;47.354;8.528;2023-03-12T09:37:04;17.00;65.60
4578;DHT22;2301;47.354;8.528;2023-03-12T09:39:31;16.40;65.50
4578;DHT22;2301;47.354;8.528;2023-03-12T09:41:58;15.80;66.30
4578;DHT22;2301;47.354;8.528;2023-03-12T09:44:30;15.40;67.90
4578;DHT22;2301;47.354;8.528;2023-03-12T09:47:00;15.10;69.40
4578;DHT22;2301;47.354;8.528;2023-03-12T09:49:32;14.80;69.40
4578;DHT22;2301;47.354;8.528;2023-03-12T09:52:04;14.40;68.90
4578;DHT22;2301;47.354;8.528;2023-03-12T09:54:37;14.10;70.40
4578;DHT22;2301;47.354;8.528;2023-03-12T09:57:10;13.80;71.50
4578;DHT22;2301;47.354;8.528;2023-03-12T09:59:38;13.50;73.40
4578;DHT22;2301;47.354;8.528;2023-03-12T10:02:20;13.20;73.50
4578;DHT22;2301;47.354;8.528;2023-03-12T10:04:56;12.90;74.60
4578;DHT22;2301;47.354;8.528;2023-03-12T10:07:30;12.70;76.00
4578;DHT22;2301;47.354;8.528;2023-03-12T10:10:09;12.50;76.90
4578;DHT22;2301;47.354;8.528;2023-03-12T10:12:53;12.40;78.00
4578;DHT22;2301;47.354;8.528;2023-03-12T10:15:31;12.20;79.10
4578;DHT22;2301;47.354;8.528;2023-03-12T10:18:10;12.00;80.00
4578;DHT22;2301;47.354;8.528;2023-03-12T10:21:01;11.90;80.70
4578;DHT22;2301;47.354;8.528;2023-03-12T10:23:37;11.80;81.60
4578;DHT22;2301;47.354;8.528;2023-03-12T10:26:10;11.60;82.20
4578;DHT22;2301;47.354;8.528;2023-03-12T10:28:42;11.40;83.20
4578;DHT22;2301;47.354;8.528;2023-03-12T10:31:14;11.40;84.40
4578;DHT22;2301;47.354;8.528;2023-03-12T10:33:46;11.30;85.40
4578;DHT22;2301;47.354;8.528;2023-03-12T10:36:17;11.30;86.30
4578;DHT22;2301;47.354;8.528;2023-03-12T10:38:46;11.30;87.20
4578;DHT22;2301;47.354;8.528;2023-03-12T10:41:16;11.20;87.20
4578;DHT22;2301;47.354;8.528;2023-03-12T10:43:44;11.20;87.30
4578;DHT22;2301;47.354;8.528;2023-03-12T10:46:40;11.10;87.60
4578;DHT22;2301;47.354;8.528;2023-03-12T10:49:30;11.00;87.90
4578;DHT22;2301;47.354;8.528;2023-03-12T10:52:00;10.80;88.10
4578;DHT22;2301;47.354;8.528;2023-03-12T10:54:31;10.70;88.20
4578;DHT22;2301;47.354;8.528;2023-03-12T10:56:58;10.60;88.50
4578;DHT22;2301;47.354;8.528;2023-03-12T10:59:28;10.60;88.90
4578;DHT22;2301;47.354;8.528;2023-03-12T11:01:56;10.50;89.40
4578;DHT22;2301;47.354;8.528;2023-03-12T11:04:25;10.40;89.70
4578;DHT22;2301;47.354;8.528;2023-03-12T11:07:14;10.30;90.10
4578;DHT22;2301;47.354;8.528;2023-03-12T11:09:44;10.30;90.40
4578;DHT22;2301;47.354;8.528;2023-03-12T11:12:25;10.20;90.80
4578;DHT22;2301;47.354;8.528;2023-03-12T11:14:53;10.30;91.60
4578;DHT22;2301;47.354;8.528;2023-03-12T11:17:21;10.40;92.00
4578;DHT22;2301;47.354;8.528;2023-03-12T11:19:49;10.50;92.10
4578;DHT22;2301;47.354;8.528;2023-03-12T11:22:27;10.60;92.20
4578;DHT22;2301;47.354;8.528;2023-03-12T11:24:58;10.80;92.50
4578;DHT22;2301;47.354;8.528;2023-03-12T11:27:39;10.90;92.60
4578;DHT22;2301;47.354;8.528;2023-03-12T11:30:11;11.00;92.30
4578;DHT22;2301;47.354;8.528;2023-03-12T11:32:41;11.20;92.50
4578;DHT22;2301;47.354;8.528;2023-03-12T11:35:11;11.30;92.70
4578;DHT22;2301;47.354;8.528;2023-03-12T11:37:48;11.40;92.60
4578;DHT22;2301;47.354;8.528;2023-03-12T11:40:28;11.60;92.30
4578;DHT22;2301;47.354;8.528;2023-03-12T11:43:11;11.60;92.00
4578;DHT22;2301;47.354;8.528;2023-03-12T11:45:59;11.70;91.80
4578;DHT22;2301;47.354;8.528;2023-03-12T11:48:38;11.80;91.70
4578;DHT22;2301;47.354;8.528;2023-03-12T11:51:17;11.90;91.70
4578;DHT22;2301;47.354;8.528;2023-03-12T11:54:05;12.10;91.80
4578;DHT22;2301;47.354;8.528;2023-03-12T11:56:38;12.30;91.60
4578;DHT22;2301;47.354;8.528;2023-03-12T11:59:17;12.30;91.30
4578;DHT22;2301;47.354;8.528;2023-03-12T12:01:57;12.50;91.20
4578;DHT22;2301;47.354;8.528;2023-03-12T12:04:57;12.50;91.10
4578;DHT22;2301;47.354;8.528;2023-03-12T12:07:39;12.60;90.50
4578;DHT22;2301;47.354;8.528;2023-03-12T12:10:12;12.60;90.40
4578;DHT22;2301;47.354;8.528;2023-03-12T12:12:51;12.60;90.30
4578;DHT22;2301;47.354;8.528;2023-03-12T12:15:27;12.50;89.90
4578;DHT22;2301;47.354;8.528;2023-03-12T12:18:10;12.30;90.10
4578;DHT22;2301;47.354;8.528;2023-03-12T12:20:44;12.20;90.00
4578;DHT22;2301;47.354;8.528;2023-03-12T12:23:16;12.20;90.20
4578;DHT22;2301;47.354;8.528;2023-03-12T12:26:03;12.20;90.40
4578;DHT22;2301;47.354;8.528;2023-03-12T12:31:36;12.00;90.80
4578;DHT22;2301;47.354;8.528;2023-03-12T12:34:17;11.90;90.50
4578;DHT22;2301;47.354;8.528;2023-03-12T12:36:51;11.80;90.60
4578;DHT22;2301;47.354;8.528;2023-03-12T12:39:28;11.90;91.10
4578;DHT22;2301;47.354;8.528;2023-03-12T12:42:01;12.00;91.10
4578;DHT22;2301;47.354;8.528;2023-03-12T12:44:32;12.10;90.90
4578;DHT22;2301;47.354;8.528;2023-03-12T12:47:03;12.30;91.30
4578;DHT22;2301;47.354;8.528;2023-03-12T12:49:37;12.50;91.40
4578;DHT22;2301;47.354;8.528;2023-03-12T12:52:11;12.70;90.80
4578;DHT22;2301;47.354;8.528;2023-03-12T12:54:49;12.80;90.70
4578;DHT22;2301;47.354;8.528;2023-03-12T12:57:23;12.80;90.60
4578;DHT22;2301;47.354;8.528;2023-03-12T13:00:06;12.80;90.10
4578;DHT22;2301;47.354;8.528;2023-03-12T13:02:38;13.00;90.50
4578;DHT22;2301;47.354;8.528;2023-03-12T13:05:17;13.10;90.40
4578;DHT22;2301;47.354;8.528;2023-03-12T13:07:44;13.20;89.90
4578;DHT22;2301;47.354;8.528;2023-03-12T13:10:39;13.20;89.90
4578;DHT22;2301;47.354;8.528;2023-03-12T13:13:10;13.20;88.50
4578;DHT22;2301;47.354;8.528;2023-03-12T13:15:39;13.20;88.80
4578;DHT22;2301;47.354;8.528;2023-03-12T13:18:20;13.30;89.30
4578;DHT22;2301;47.354;8.528;2023-03-12T13:21:18;13.20;89.20
4578;DHT22;2301;47.354;8.528;2023-03-12T13:23:54;13.20;87.30
4578;DHT22;2301;47.354;8.528;2023-03-12T13:26:34;13.20;87.70
4578;DHT22;2301;47.354;8.528;2023-03-12T13:29:21;13.20;88.50
4578;DHT22;2301;47.354;8.528;2023-03-12T13:31:49;13.30;88.90
4578;DHT22;2301;47.354;8.528;2023-03-12T13:34:46;13.40;88.20
4578;DHT22;2301;47.354;8.528;2023-03-12T13:37:28;13.40;87.60
4578;DHT22;2301;47.354;8.528;2023-03-12T13:39:59;13.30;87.40
4578;DHT22;2301;47.354;8.528;2023-03-12T13:42:39;13.20;87.70
4578;DHT22;2301;47.354;8.528;2023-03-12T13:45:24;13.00;87.70
4578;DHT22;2301;47.354;8.528;2023-03-12T13:47:58;12.90;88.20
4578;DHT22;2301;47.354;8.528;2023-03-12T13:50:27;12.90;88.80
4578;DHT22;2301;47.354;8.528;2023-03-12T13:53:02;12.70;89.10
4578;DHT22;2301;47.354;8.528;2023-03-12T13:55:31;12.70;89.60
4578;DHT22;2301;47.354;8.528;2023-03-12T13:58:04;12.70;89.50
4578;DHT22;2301;47.354;8.528;2023-03-12T14:00:37;12.80;89.70
4578;DHT22;2301;47.354;8.528;2023-03-12T14:03:12;12.80;89.80
4578;DHT22;2301;47.354;8.528;2023-03-12T14:05:47;12.90;90.10
4578;DHT22;2301;47.354;8.528;2023-03-12T14:08:29;13.00;89.80
4578;DHT22;2301;47.354;8.528;2023-03-12T14:11:17;13.10;89.50
4578;DHT22;2301;47.354;8.528;2023-03-12T14:14:07;13.30;89.00
4578;DHT22;2301;47.354;8.528;2023-03-12T14:16:44;13.30;88.40
4578;DHT22;2301;47.354;8.528;2023-03-12T14:19:13;13.30;88.10
4578;DHT22;2301;47.354;8.528;2023-03-12T14:21:43;13.30;87.50
4578;DHT22;2301;47.354;8.528;2023-03-12T14:24:20;13.30;86.50
4578;DHT22;2301;47.354;8.528;2023-03-12T14:26:48;13.40;86.20
4578;DHT22;2301;47.354;8.528;2023-03-12T14:29:20;13.40;86.60
4578;DHT22;2301;47.354;8.528;2023-03-12T14:31:51;13.50;87.20
4578;DHT22;2301;47.354;8.528;2023-03-12T14:34:25;13.60;86.50
4578;DHT22;2301;47.354;8.528;2023-03-12T14:36:57;13.60;84.90
4578;DHT22;2301;47.354;8.528;2023-03-12T14:39:29;13.70;85.00
4578;DHT22;2301;47.354;8.528;2023-03-12T14:41:59;13.80;84.70
4578;DHT22;2301;47.354;8.528;2023-03-12T14:44:29;13.80;83.70
4578;DHT22;2301;47.354;8.528;2023-03-12T14:46:59;13.90;82.80
4578;DHT22;2301;47.354;8.528;2023-03-12T14:49:29;14.00;81.20
4578;DHT22;2301;47.354;8.528;2023-03-12T14:51:56;14.00;80.60
4578;DHT22;2301;47.354;8.528;2023-03-12T14:54:26;14.10;80.70
4578;DHT22;2301;47.354;8.528;2023-03-12T14:56:53;14.20;80.30
4578;DHT22;2301;47.354;8.528;2023-03-12T14:59:23;14.30;78.40
4578;DHT22;2301;47.354;8.528;2023-03-12T15:01:51;14.40;77.40
4578;DHT22;2301;47.354;8.528;2023-03-12T15:04:20;14.40;76.40
4578;DHT22;2301;47.354;8.528;2023-03-12T15:06:51;14.40;76.80
4578;DHT22;2301;47.354;8.528;2023-03-12T15:09:22;14.50;77.80
4578;DHT22;2301;47.354;8.528;2023-03-12T15:11:52;14.60;77.90
4578;DHT22;2301;47.354;8.528;2023-03-12T15:14:20;14.70;75.70
4578;DHT22;2301;47.354;8.528;2023-03-12T15:16:49;14.70;74.60
4578;DHT22;2301;47.354;8.528;2023-03-12T15:19:20;14.70;74.00
4578;DHT22;2301;47.354;8.528;2023-03-12T15:21:50;14.70;74.50
4578;DHT22;2301;47.354;8.528;2023-03-12T15:24:17;14.80;74.10
4578;DHT22;2301;47.354;8.528;2023-03-12T15:26:44;14.80;72.90
4578;DHT22;2301;47.354;8.528;2023-03-12T15:29:19;14.80;72.60
4578;DHT22;2301;47.354;8.528;2023-03-12T15:31:52;14.80;71.60
4578;DHT22;2301;47.354;8.528;2023-03-12T15:34:29;14.80;71.70
4578;DHT22;2301;47.354;8.528;2023-03-12T15:36:59;14.80;71.60
4578;DHT22;2301;47.354;8.528;2023-03-12T15:39:28;14.70;71.30
4578;DHT22;2301;47.354;8.528;2023-03-12T15:41:59;14.80;71.70
4578;DHT22;2301;47.354;8.528;2023-03-12T15:44:28;14.80;72.20
4578;DHT22;2301;47.354;8.528;2023-03-12T15:47:02;14.70;71.30
4578;DHT22;2301;47.354;8.528;2023-03-12T15:49:34;14.70;71.00
4578;DHT22;2301;47.354;8.528;2023-03-12T15:52:06;14.70;71.40
4578;DHT22;2301;47.354;8.528;2023-03-12T15:54:59;14.60;71.40
4578;DHT22;2301;47.354;8.528;2023-03-12T15:57:27;14.60;71.20
4578;DHT22;2301;47.354;8.528;2023-03-12T16:00:15;14.50;71.40
4578;DHT22;2301;47.354;8.528;2023-03-12T16:02:51;14.50;71.40
4578;DHT22;2301;47.354;8.528;2023-03-12T16:05:19;14.40;70.60
4578;DHT22;2301;47.354;8.528;2023-03-12T16:07:48;14.40;71.10
4578;DHT22;2301;47.354;8.528;2023-03-12T16:10:16;14.40;71.40
4578;DHT22;2301;47.354;8.528;2023-03-12T16:12:44;14.40;71.10
4578;DHT22;2301;47.354;8.528;2023-03-12T16:15:13;14.40;70.70
4578;DHT22;2301;47.354;8.528;2023-03-12T16:17:41;14.30;70.90
4578;DHT22;2301;47.354;8.528;2023-03-12T16:20:11;14.30;71.20
4578;DHT22;2301;47.354;8.528;2023-03-12T16:22:38;14.30;71.40
4578;DHT22;2301;47.354;8.528;2023-03-12T16:25:08;14.30;71.70
4578;DHT22;2301;47.354;8.528;2023-03-12T16:27:36;14.30;72.00